Time;durP1;ratioP1;P1;durP2;ratioP2;P2;SDS_P1;SDS_P2;PMS_P1;PMS_P2;Temp;Humidity;BMP_temperature;BMP_pressure;BME280_temperature;BME280_humidity;BME280_pressure;Samples;Min_cycle;Max_cycle;Signal;HPM_P1;HPM_P2
2023/08/24 00:00:12;;;;;;;3.50;2.60;;;14.00;99.90;;;;;;4970794;28;20651;-83
2023/08/24 00:02:37;;;;;;;5.47;3.00;;;13.90;99.90;;;;;;4944697;28;20050;-83
2023/08/24 00:05:03;;;;;;;4.57;3.08;;;13.90;99.90;;;;;;4976035;28;20034;-82
2023/08/24 00:07:29;;;;;;;3.20;2.67;;;13.80;99.90;;;;;;4974031;28;20085;-83
2023/08/24 00:09:55;;;;;;;4.60;3.20;;;13.90;99.90;;;;;;4955814;28;20561;-83
2023/08/24 00:12:21;;;;;;;4.32;3.72;;;13.80;99.90;;;;;;4938201;28;20524;-82
2023/08/24 00:14:46;;;;;;;4.70;2.88;;;13.80;99.90;;;;;;4960983;28;20058;-83
2023/08/24 00:17:12;;;;;;;6.53;3.40;;;13.80;99.90;;;;;;4975405;28;20804;-83
2023/08/24 00:19:38;;;;;;;6.97;3.40;;;13.80;99.90;;;;;;4974362;28;20074;-83
2023/08/24 00:22:04;;;;;;;3.78;2.78;;;13.80;99.90;;;;;;4974883;28;20169;-83
2023/08/24 00:24:29;;;;;;;3.25;2.60;;;13.70;99.90;;;;;;4943541;28;20257;-83
2023/08/24 00:26:55;;;;;;;3.90;3.08;;;13.70;99.90;;;;;;4945775;28;20034;-83
2023/08/24 00:29:21;;;;;;;3.45;2.85;;;13.70;99.90;;;;;;4963523;28;20046;-83
2023/08/24 00:31:47;;;;;;;3.92;3.00;;;13.70;99.90;;;;;;4962526;28;20041;-83
2023/08/24 00:34:14;;;;;;;2.05;1.65;;;13.70;99.90;;;;;;4958886;28;20591;-84
2023/08/24 00:36:43;;;;;;;9.15;3.78;;;13.60;99.90;;;;;;4948504;28;20045;-83
2023/08/24 00:39:08;;;;;;;2.95;2.35;;;13.70;99.90;;;;;;4975791;28;20050;-83
2023/08/24 00:41:34;;;;;;;5.10;3.05;;;13.70;99.90;;;;;;4975361;28;20105;-82
2023/08/24 00:44:00;;;;;;;4.22;3.00;;;13.70;99.90;;;;;;4942552;28;20548;-83
2023/08/24 00:46:27;;;;;;;3.92;3.10;;;13.80;99.90;;;;;;4944705;28;20054;-83
2023/08/24 00:48:56;;;;;;;2.40;1.90;;;13.70;99.90;;;;;;4945745;28;20511;-83
2023/08/24 00:51:23;;;;;;;2.33;2.00;;;13.70;99.90;;;;;;4944273;28;20133;-83
2023/08/24 00:53:49;;;;;;;5.05;2.00;;;13.70;99.90;;;;;;4974596;28;20126;-83
2023/08/24 00:56:15;;;;;;;11.82;2.47;;;13.70;99.90;;;;;;4975556;28;20121;-83
2023/08/24 00:58:41;;;;;;;51.80;6.90;;;13.70;99.90;;;;;;4958879;28;20273;-83
2023/08/24 01:01:07;;;;;;;2.35;1.88;;;13.70;99.90;;;;;;4972059;28;20114;-84
2023/08/24 01:03:35;;;;;;;5.57;3.22;;;13.70;99.90;;;;;;4961245;28;20154;-83
2023/08/24 01:06:01;;;;;;;4.35;2.92;;;13.70;99.90;;;;;;4958289;28;20126;-83
2023/08/24 01:08:27;;;;;;;4.15;3.03;;;13.70;99.90;;;;;;4961438;28;20180;-83
2023/08/24 01:11:12;;;;;;;39.03;6.50;;;13.50;99.90;;;;;;4960267;28;20042;-83
2023/08/24 01:13:54;;;;;;;93.22;5.35;;;13.50;99.90;;;;;;4944716;28;20077;-84
2023/08/24 01:16:29;;;;;;;6.25;3.17;;;13.50;99.90;;;;;;4976835;28;20047;-83
2023/08/24 01:18:59;;;;;;;5.03;3.92;;;13.50;99.90;;;;;;4944592;28;20367;-83
2023/08/24 01:21:26;;;;;;;4.10;3.40;;;13.40;99.90;;;;;;4958928;28;20057;-83
2023/08/24 01:24:15;;;;;;;4.50;3.28;;;13.40;99.90;;;;;;4974971;28;20072;-83
2023/08/24 01:26:42;;;;;;;6.63;3.60;;;13.50;99.90;;;;;;4943644;28;20124;-83
2023/08/24 01:29:10;;;;;;;5.80;3.92;;;13.60;99.90;;;;;;4974139;28;20042;-82
2023/08/24 01:31:37;;;;;;;7.85;3.88;;;13.70;99.90;;;;;;4959800;28;20522;-83
2023/08/24 01:34:03;;;;;;;4.57;3.90;;;13.80;99.90;;;;;;4946069;28;20050;-83
2023/08/24 01:36:30;;;;;;;3.47;3.15;;;13.80;99.90;;;;;;4956995;28;20085;-83
2023/08/24 01:39:11;;;;;;;5.80;4.03;;;13.70;99.90;;;;;;4974166;28;20205;-83
2023/08/24 01:41:39;;;;;;;4.05;3.38;;;13.60;99.90;;;;;;4945084;28;20077;-82
2023/08/24 01:44:08;;;;;;;3.40;3.10;;;13.70;99.90;;;;;;4959960;28;20364;-83
2023/08/24 01:46:36;;;;;;;4.20;3.72;;;13.70;99.90;;;;;;4959185;28;20284;-83
2023/08/24 01:49:07;;;;;;;3.50;3.20;;;13.80;99.90;;;;;;4977151;28;20367;-83
2023/08/24 01:51:34;;;;;;;5.72;3.47;;;13.80;99.90;;;;;;4954263;28;20040;-83
2023/08/24 01:54:00;;;;;;;3.92;3.53;;;13.80;99.90;;;;;;4960904;28;20038;-83
2023/08/24 01:56:26;;;;;;;3.90;3.38;;;13.80;99.90;;;;;;4975271;28;20038;-83
2023/08/24 01:58:52;;;;;;;4.97;3.80;;;13.80;99.90;;;;;;4956194;28;20052;-83
2023/08/24 02:01:18;;;;;;;5.45;4.00;;;13.90;99.90;;;;;;4958591;28;20073;-83
2023/08/24 02:03:43;;;;;;;5.00;4.05;;;14.00;99.90;;;;;;4942285;28;20077;-83
2023/08/24 02:06:09;;;;;;;5.22;4.32;;;14.00;99.90;;;;;;4958726;28;20078;-83
2023/08/24 02:08:35;;;;;;;6.50;4.70;;;14.10;99.90;;;;;;4958140;28;20528;-83
2023/08/24 02:11:01;;;;;;;4.85;4.32;;;14.10;99.90;;;;;;4958137;28;20133;-83
2023/08/24 02:13:26;;;;;;;7.53;5.60;;;14.00;99.90;;;;;;4957868;28;20030;-82
2023/08/24 02:16:08;;;;;;;6.85;6.05;;;14.10;99.90;;;;;;4959077;28;20365;-83
2023/08/24 02:18:34;;;;;;;10.30;6.10;;;14.10;99.90;;;;;;4958665;28;20151;-83
2023/08/24 02:21:00;;;;;;;5.90;5.30;;;14.10;99.90;;;;;;4954072;28;20126;-83
2023/08/24 02:23:25;;;;;;;7.60;6.05;;;14.10;99.90;;;;;;4959720;28;20065;-83
2023/08/24 02:25:51;;;;;;;8.85;6.38;;;14.20;99.90;;;;;;4937591;28;20038;-83
2023/08/24 02:28:16;;;;;;;7.63;6.38;;;14.20;99.90;;;;;;4941849;28;20180;-82
2023/08/24 02:30:42;;;;;;;8.73;6.20;;;14.20;99.90;;;;;;4957020;28;20045;-83
2023/08/24 02:33:08;;;;;;;6.75;5.38;;;14.20;99.90;;;;;;4959747;28;20034;-82
2023/08/24 02:35:36;;;;;;;7.03;5.82;;;14.10;99.90;;;;;;4973361;28;20521;-83
2023/08/24 02:38:02;;;;;;;8.68;6.30;;;14.10;99.90;;;;;;4956751;28;20030;-83
2023/08/24 02:40:28;;;;;;;8.18;6.18;;;14.10;99.90;;;;;;4941397;28;20076;-82
2023/08/24 02:42:54;;;;;;;7.05;6.07;;;14.20;99.90;;;;;;4958576;28;20667;-82
2023/08/24 02:45:19;;;;;;;6.75;4.75;;;14.20;99.90;;;;;;4938685;28;20101;-82
2023/08/24 02:47:48;;;;;;;7.20;5.93;;;14.20;99.90;;;;;;4943500;28;20140;-83
2023/08/24 02:50:14;;;;;;;8.57;6.45;;;14.30;99.90;;;;;;4958403;28;20105;-83
2023/08/24 02:52:39;;;;;;;8.88;6.05;;;14.30;99.90;;;;;;4958384;28;20440;-82
2023/08/24 02:55:05;;;;;;;7.60;5.80;;;14.30;99.90;;;;;;4956675;28;20777;-82
2023/08/24 02:57:31;;;;;;;8.00;5.68;;;14.30;99.90;;;;;;4951647;28;20034;-82
2023/08/24 02:59:57;;;;;;;8.75;5.97;;;14.30;99.90;;;;;;4955686;28;20498;-82
2023/08/24 03:02:22;;;;;;;8.80;6.45;;;14.40;99.90;;;;;;4959493;28;20154;-82
2023/08/24 03:04:48;;;;;;;7.60;5.13;;;14.40;99.90;;;;;;4959666;28;20414;-82
2023/08/24 03:07:13;;;;;;;7.35;5.45;;;14.40;99.90;;;;;;4943307;28;20046;-82
2023/08/24 03:09:39;;;;;;;8.05;5.53;;;14.40;99.90;;;;;;4956908;28;20050;-82
2023/08/24 03:12:05;;;;;;;9.63;6.05;;;14.40;99.90;;;;;;4957828;28;20038;-82
2023/08/24 03:14:30;;;;;;;7.28;5.65;;;14.50;99.90;;;;;;4965886;28;20108;-82
2023/08/24 03:16:56;;;;;;;6.95;5.55;;;14.50;99.90;;;;;;4941492;28;20030;-83
2023/08/24 03:19:22;;;;;;;8.07;5.57;;;14.50;99.90;;;;;;4956846;28;20627;-82
2023/08/24 03:21:47;;;;;;;7.57;5.55;;;14.50;99.90;;;;;;4959319;28;20198;-82
2023/08/24 03:24:13;;;;;;;10.10;6.45;;;14.40;99.90;;;;;;4956709;28;20103;-82
2023/08/24 03:26:39;;;;;;;9.07;6.00;;;14.40;99.90;;;;;;4943195;28;20539;-82
2023/08/24 03:29:04;;;;;;;8.50;6.10;;;14.40;99.90;;;;;;4942925;28;20500;-82
2023/08/24 03:31:30;;;;;;;10.98;6.38;;;14.30;99.90;;;;;;4959070;28;20030;-82
2023/08/24 03:33:55;;;;;;;6.78;5.75;;;14.30;99.90;;;;;;4973663;28;20684;-82
2023/08/24 03:36:21;;;;;;;8.20;6.25;;;14.30;99.90;;;;;;4958506;28;20035;-82
2023/08/24 03:38:47;;;;;;;9.80;6.40;;;14.20;99.90;;;;;;4975931;28;20548;-82
2023/08/24 03:41:12;;;;;;;7.57;6.03;;;14.30;99.90;;;;;;4973406;28;20061;-82
2023/08/24 03:43:38;;;;;;;11.38;6.97;;;14.20;99.90;;;;;;4958938;28;20050;-82
2023/08/24 03:46:05;;;;;;;11.88;7.60;;;14.30;99.90;;;;;;4956753;28;20756;-82
2023/08/24 03:48:32;;;;;;;10.45;6.70;;;14.30;99.90;;;;;;4958014;28;20049;-82
2023/08/24 03:50:58;;;;;;;13.55;7.85;;;14.30;99.90;;;;;;4961506;28;20162;-82
2023/08/24 03:53:27;;;;;;;9.63;7.15;;;14.40;99.90;;;;;;4961349;28;20193;-82
2023/08/24 03:55:52;;;;;;;8.73;6.97;;;14.40;99.90;;;;;;4961749;28;20283;-83
2023/08/24 03:58:18;;;;;;;10.25;6.72;;;14.40;99.90;;;;;;4960960;28;20108;-82
2023/08/24 04:00:44;;;;;;;12.32;6.97;;;14.30;99.90;;;;;;4960231;28;20042;-82
2023/08/24 04:03:11;;;;;;;10.38;6.78;;;14.40;99.90;;;;;;4980583;28;20113;-82
2023/08/24 04:05:36;;;;;;;10.50;7.47;;;14.40;99.90;;;;;;4958356;28;20038;-82
2023/08/24 04:08:02;;;;;;;8.20;6.82;;;14.30;99.90;;;;;;4958957;28;20065;-82
2023/08/24 04:10:29;;;;;;;12.57;7.95;;;14.40;99.90;;;;;;4943600;28;20105;-82
2023/08/24 04:12:54;;;;;;;14.05;8.00;;;14.40;99.90;;;;;;4958883;28;20490;-82
2023/08/24 04:15:20;;;;;;;11.77;7.45;;;14.40;99.90;;;;;;4962907;28;20129;-82
2023/08/24 04:17:46;;;;;;;8.50;6.28;;;14.40;99.90;;;;;;4961874;28;20165;-83
2023/08/24 04:20:12;;;;;;;6.00;5.10;;;14.30;99.90;;;;;;4959298;28;20046;-82
2023/08/24 04:22:38;;;;;;;8.90;6.18;;;14.30;99.90;;;;;;4976669;28;20052;-82
2023/08/24 04:25:04;;;;;;;10.45;6.53;;;14.30;99.90;;;;;;4959812;28;20046;-82
2023/08/24 04:27:30;;;;;;;11.70;7.75;;;14.30;99.90;;;;;;4961302;28;20567;-81
2023/08/24 04:29:55;;;;;;;10.50;7.32;;;14.40;99.90;;;;;;4946630;28;20059;-82
2023/08/24 04:32:23;;;;;;;9.90;6.32;;;14.40;99.90;;;;;;4962482;28;20089;-82
2023/08/24 04:34:48;;;;;;;10.50;7.30;;;14.40;99.90;;;;;;4960068;28;20039;-82
2023/08/24 04:37:14;;;;;;;10.20;7.18;;;14.40;99.90;;;;;;4977272;28;20450;-82
2023/08/24 04:39:39;;;;;;;13.00;7.80;;;14.40;99.90;;;;;;4959501;28;20539;-82
2023/08/24 04:42:06;;;;;;;9.95;7.38;;;14.50;99.90;;;;;;4945174;28;20034;-82
2023/08/24 04:44:32;;;;;;;11.40;7.75;;;14.40;99.90;;;;;;4946235;28;20049;-82
2023/08/24 04:46:58;;;;;;;13.93;7.60;;;14.40;99.90;;;;;;4945031;28;20665;-82
2023/08/24 04:49:23;;;;;;;10.25;6.45;;;14.40;99.90;;;;;;4956141;28;20240;-82
2023/08/24 04:51:49;;;;;;;9.85;6.72;;;14.40;99.90;;;;;;4971867;28;20343;-82
2023/08/24 04:54:15;;;;;;;8.77;6.70;;;14.30;99.90;;;;;;4956516;28;20252;-82
2023/08/24 04:56:40;;;;;;;12.20;7.57;;;14.30;99.90;;;;;;4957327;28;20042;-82
2023/08/24 04:59:07;;;;;;;10.93;7.88;;;14.40;99.90;;;;;;4973954;28;20416;-82
2023/08/24 05:01:35;;;;;;;10.48;7.25;;;14.40;99.90;;;;;;4957802;28;20038;-82
2023/08/24 05:04:01;;;;;;;13.25;8.18;;;14.40;99.90;;;;;;4973860;28;20042;-81
2023/08/24 05:06:26;;;;;;;13.25;8.00;;;14.40;99.90;;;;;;4975214;28;20050;-82
2023/08/24 05:08:52;;;;;;;9.73;7.68;;;14.40;99.90;;;;;;4959985;28;20144;-82
2023/08/24 05:11:20;;;;;;;9.77;7.47;;;14.40;99.90;;;;;;4943836;28;20069;-82
2023/08/24 05:13:46;;;;;;;13.68;7.97;;;14.50;99.90;;;;;;4943870;28;20066;-82
2023/08/24 05:16:12;;;;;;;10.65;8.55;;;14.50;99.90;;;;;;4974774;28;20529;-81
2023/08/24 05:18:38;;;;;;;11.93;8.75;;;14.60;99.90;;;;;;4960734;28;20057;-82
2023/08/24 05:21:04;;;;;;;13.18;8.52;;;14.60;99.90;;;;;;4976157;28;20050;-82
2023/08/24 05:23:32;;;;;;;14.90;9.10;;;14.60;99.90;;;;;;4960885;28;20042;-82
2023/08/24 05:25:58;;;;;;;12.80;9.00;;;14.70;99.90;;;;;;4958774;28;20136;-82
2023/08/24 05:28:25;;;;;;;12.90;8.50;;;14.70;99.90;;;;;;4957949;28;20157;-81
2023/08/24 05:30:54;;;;;;;12.75;8.18;;;14.70;99.90;;;;;;4977245;28;20329;-82
2023/08/24 05:33:21;;;;;;;14.25;8.93;;;14.70;99.90;;;;;;4960601;28;20045;-82
2023/08/24 05:35:47;;;;;;;12.63;8.52;;;14.80;99.90;;;;;;4941864;28;20042;-81
2023/08/24 05:38:14;;;;;;;13.77;9.52;;;14.80;99.90;;;;;;4973913;28;20077;-82
2023/08/24 05:40:42;;;;;;;11.55;9.13;;;14.90;99.90;;;;;;4974609;28;20121;-81
2023/08/24 05:43:08;;;;;;;11.25;9.52;;;14.90;99.90;;;;;;4957558;28;20051;-82
2023/08/24 05:45:34;;;;;;;14.05;8.50;;;15.00;99.90;;;;;;4941037;28;20050;-81
2023/08/24 05:47:59;;;;;;;12.65;8.55;;;15.20;99.90;;;;;;4960987;28;20370;-81
2023/08/24 05:50:25;;;;;;;14.60;10.25;;;15.30;99.90;;;;;;4951354;28;20470;-81
2023/08/24 05:52:51;;;;;;;13.95;9.48;;;15.40;99.90;;;;;;4977199;28;20034;-82
2023/08/24 05:55:19;;;;;;;13.77;9.80;;;15.50;99.90;;;;;;4961863;28;20046;-81
2023/08/24 05:57:45;;;;;;;14.45;10.05;;;15.60;99.90;;;;;;4956946;28;20374;-82
2023/08/24 06:00:11;;;;;;;12.32;9.10;;;15.80;99.90;;;;;;4940044;28;20049;-82
2023/08/24 06:02:37;;;;;;;14.88;9.73;;;15.80;99.90;;;;;;4960025;28;20046;-82
2023/08/24 06:05:03;;;;;;;15.65;10.43;;;15.90;99.90;;;;;;4956286;28;20053;-82
2023/08/24 06:07:32;;;;;;;14.82;9.38;;;16.00;99.90;;;;;;4941577;28;20074;-82
2023/08/24 06:09:58;;;;;;;14.95;9.88;;;16.20;99.90;;;;;;4956318;28;20070;-82
2023/08/24 06:12:24;;;;;;;16.63;9.73;;;16.30;99.90;;;;;;4942029;28;20038;-82
2023/08/24 06:14:49;;;;;;;13.82;8.60;;;16.40;99.90;;;;;;4976264;28;20045;-82
2023/08/24 06:17:15;;;;;;;13.30;7.78;;;16.50;99.90;;;;;;4958070;28;20045;-82
2023/08/24 06:19:41;;;;;;;13.52;8.07;;;16.60;99.90;;;;;;4956457;28;20074;-82
2023/08/24 06:22:07;;;;;;;11.27;7.55;;;16.70;99.90;;;;;;4958333;28;20068;-81
2023/08/24 06:24:32;;;;;;;10.52;7.07;;;16.80;99.90;;;;;;4955352;28;20042;-82
2023/08/24 06:26:58;;;;;;;9.10;6.43;;;16.80;99.90;;;;;;4958940;28;20050;-81
2023/08/24 06:29:24;;;;;;;14.10;7.50;;;17.00;99.90;;;;;;4959838;28;20125;-82
2023/08/24 06:31:49;;;;;;;9.30;7.15;;;17.00;99.90;;;;;;4977064;28;20088;-81
2023/08/24 06:34:18;;;;;;;9.98;7.30;;;17.10;99.90;;;;;;4960637;28;20042;-81
2023/08/24 06:36:43;;;;;;;10.32;6.18;;;17.10;99.90;;;;;;4955455;28;20042;-82
2023/08/24 06:39:09;;;;;;;8.95;6.43;;;17.30;99.90;;;;;;4957239;28;20429;-82
2023/08/24 06:41:35;;;;;;;9.23;6.45;;;17.40;99.90;;;;;;4940631;28;20038;-82
2023/08/24 06:44:01;;;;;;;10.05;6.05;;;17.50;99.90;;;;;;4958387;28;20149;-82
2023/08/24 06:46:27;;;;;;;9.27;5.72;;;17.60;99.90;;;;;;4972690;28;20393;-81
2023/08/24 06:48:53;;;;;;;7.72;5.32;;;17.70;99.90;;;;;;4974238;28;20053;-81
2023/08/24 06:51:19;;;;;;;11.20;5.20;;;17.70;99.90;;;;;;4942224;28;20241;-82
2023/08/24 06:53:46;;;;;;;8.13;4.68;;;17.80;99.90;;;;;;4939000;28;20061;-82
2023/08/24 06:56:14;;;;;;;5.32;4.38;;;17.90;99.90;;;;;;4955211;28;20437;-82
2023/08/24 06:58:39;;;;;;;9.63;4.10;;;17.90;99.90;;;;;;4963253;28;20134;-82
2023/08/24 07:01:05;;;;;;;11.13;4.10;;;18.00;99.90;;;;;;4976999;28;20137;-82
2023/08/24 07:03:33;;;;;;;5.05;3.95;;;18.20;99.90;;;;;;4944596;28;20682;-82
2023/08/24 07:05:58;;;;;;;7.45;4.25;;;18.20;99.90;;;;;;4943735;28;20508;-82
2023/08/24 07:08:24;;;;;;;8.43;4.05;;;18.30;99.90;;;;;;4961483;28;20058;-82
2023/08/24 07:10:50;;;;;;;8.60;4.25;;;18.40;99.90;;;;;;4958569;28;20136;-82
2023/08/24 07:13:15;;;;;;;8.32;4.20;;;18.40;99.90;;;;;;4973983;28;20101;-82
2023/08/24 07:15:41;;;;;;;8.00;4.10;;;18.50;99.90;;;;;;4957940;28;20042;-82
2023/08/24 07:18:08;;;;;;;7.97;4.35;;;18.60;99.90;;;;;;4955303;28;20688;-82
2023/08/24 07:20:34;;;;;;;10.20;4.80;;;18.70;99.90;;;;;;4939542;28;20046;-82
2023/08/24 07:23:00;;;;;;;5.93;4.25;;;18.80;99.90;;;;;;4957982;28;20054;-82
2023/08/24 07:25:28;;;;;;;9.32;5.00;;;18.90;99.90;;;;;;4956443;28;20039;-81
2023/08/24 07:28:00;;;;;;;26.63;5.63;;;19.00;99.90;;;;;;4943406;28;20468;-82
2023/08/24 07:30:29;;;;;;;8.45;5.45;;;19.10;99.90;;;;;;4973964;28;20242;-82
2023/08/24 07:32:55;;;;;;;7.65;6.22;;;19.20;99.90;;;;;;4974166;28;20106;-82
2023/08/24 07:35:21;;;;;;;8.90;5.70;;;19.20;99.90;;;;;;4959784;28;20043;-82
2023/08/24 07:37:47;;;;;;;11.00;6.65;;;19.30;99.90;;;;;;4976239;28;20062;-82
2023/08/24 07:40:14;;;;;;;8.05;6.50;;;19.40;99.90;;;;;;4943661;28;20049;-82
2023/08/24 07:42:48;;;;;;;11.48;7.35;;;19.50;99.90;;;;;;4957831;28;20342;-82
2023/08/24 07:45:14;;;;;;;12.27;6.90;;;19.60;99.90;;;;;;4957901;28;20038;-82
2023/08/24 07:47:40;;;;;;;10.85;6.10;;;19.60;99.90;;;;;;4958972;28;20143;-82
2023/08/24 07:50:08;;;;;;;11.18;6.60;;;19.70;99.90;;;;;;4955889;28;20121;-82
2023/08/24 07:52:33;;;;;;;11.52;6.00;;;19.70;99.90;;;;;;4940071;28;20034;-81
2023/08/24 07:55:00;;;;;;;10.00;6.22;;;19.80;99.90;;;;;;4939241;28;20045;-82
2023/08/24 07:57:29;;;;;;;10.02;6.72;;;20.00;99.90;;;;;;4956257;28;20042;-82
2023/08/24 07:59:54;;;;;;;12.38;5.85;;;20.00;99.90;;;;;;4948158;28;20065;-82
2023/08/24 08:02:20;;;;;;;12.13;6.15;;;20.10;99.90;;;;;;4943029;28;20525;-82
2023/08/24 08:04:46;;;;;;;9.32;5.93;;;20.20;99.90;;;;;;4974574;28;20042;-82
2023/08/24 08:07:12;;;;;;;8.88;5.75;;;20.20;99.90;;;;;;4957124;28;20054;-82
2023/08/24 08:09:38;;;;;;;8.98;5.78;;;20.30;99.90;;;;;;4955014;28;20131;-82
2023/08/24 08:12:04;;;;;;;10.60;5.80;;;20.40;99.90;;;;;;4958484;28;20125;-82
2023/08/24 08:14:29;;;;;;;10.48;5.40;;;20.50;99.90;;;;;;4959338;28;20081;-82
2023/08/24 08:16:56;;;;;;;9.82;6.03;;;20.60;99.90;;;;;;4960720;28;20381;-82
2023/08/24 08:19:25;;;;;;;10.45;5.55;;;20.70;99.90;;;;;;4955106;28;20046;-82
2023/08/24 08:21:51;;;;;;;8.48;5.35;;;20.70;99.90;;;;;;4943271;28;20034;-82
2023/08/24 08:24:16;;;;;;;7.50;5.38;;;20.80;99.90;;;;;;4972066;28;20733;-82
2023/08/24 08:26:42;;;;;;;10.20;6.18;;;21.00;99.90;;;;;;4958245;28;20089;-82
2023/08/24 08:29:07;;;;;;;9.15;5.53;;;21.10;99.90;;;;;;4958860;28;20505;-82
2023/08/24 08:31:33;;;;;;;7.15;5.30;;;21.20;99.90;;;;;;4974193;28;20037;-82
2023/08/24 08:33:59;;;;;;;8.57;5.00;;;21.40;99.90;;;;;;4972827;28;20089;-82
2023/08/24 08:36:24;;;;;;;8.88;4.95;;;21.60;99.90;;;;;;4959575;28;20506;-83
2023/08/24 08:38:50;;;;;;;9.90;4.28;;;21.70;99.90;;;;;;4972214;28;20062;-82
2023/08/24 08:41:21;;;;;;;8.23;4.30;;;22.00;99.90;;;;;;4978461;28;20073;-83
2023/08/24 08:43:48;;;;;;;9.15;4.40;;;22.10;99.90;;;;;;4958887;28;20078;-82
2023/08/24 08:46:16;;;;;;;5.35;3.90;;;22.00;99.90;;;;;;4956850;28;20065;-82
2023/08/24 08:48:42;;;;;;;5.72;4.20;;;22.20;99.90;;;;;;4973429;28;20092;-82
2023/08/24 08:51:10;;;;;;;11.93;4.70;;;22.40;99.90;;;;;;4959798;28;20516;-81
2023/08/24 08:53:36;;;;;;;8.60;4.85;;;22.30;99.90;;;;;;4958422;28;20038;-83
2023/08/24 08:56:04;;;;;;;9.85;4.72;;;22.50;99.90;;;;;;4978105;28;20045;-82
2023/08/24 08:58:36;;;;;;;7.70;4.30;;;22.70;99.90;;;;;;4947187;28;20049;-82
2023/08/24 09:01:03;;;;;;;7.07;4.53;;;23.00;99.90;;;;;;4957487;28;20050;-82
2023/08/24 09:03:32;;;;;;;8.48;4.80;;;23.10;99.90;;;;;;4965261;28;20038;-82
2023/08/24 09:05:58;;;;;;;8.30;4.63;;;23.30;99.90;;;;;;4958623;28;20078;-82
2023/08/24 09:08:27;;;;;;;11.52;4.97;;;23.50;99.90;;;;;;4977693;28;20509;-83
2023/08/24 09:10:54;;;;;;;8.75;4.90;;;23.50;99.90;;;;;;4957802;28;20437;-82
2023/08/24 09:13:21;;;;;;;7.82;4.90;;;23.60;99.90;;;;;;4946017;28;20043;-83
2023/08/24 09:15:46;;;;;;;11.13;5.68;;;23.60;99.90;;;;;;4958708;28;20030;-82
2023/08/24 09:18:12;;;;;;;8.90;5.43;;;23.70;99.90;;;;;;4962919;28;20080;-83
2023/08/24 09:20:38;;;;;;;11.50;5.63;;;23.50;99.90;;;;;;4958765;28;20125;-83
2023/08/24 09:23:04;;;;;;;8.77;5.43;;;23.30;99.90;;;;;;4943987;28;20536;-83
2023/08/24 09:25:30;;;;;;;8.85;4.95;;;23.40;99.90;;;;;;4974897;28;20050;-83
2023/08/24 09:28:08;;;;;;;12.70;6.18;;;23.30;99.90;;;;;;4960500;28;20034;-83
2023/08/24 09:30:37;;;;;;;6.93;4.80;;;23.10;99.90;;;;;;4961945;28;20070;-82
2023/08/24 09:33:13;;;;;;;8.50;5.18;;;23.30;99.90;;;;;;4957670;28;20271;-83
2023/08/24 09:35:39;;;;;;;7.35;4.32;;;23.50;99.90;;;;;;4975407;28;20065;-83
2023/08/24 09:38:22;;;;;;;8.02;4.80;;;23.50;99.90;;;;;;4942915;28;20610;-83
2023/08/24 09:40:51;;;;;;;8.57;4.75;;;23.40;99.90;;;;;;4974985;28;20158;-82
2023/08/24 09:43:17;;;;;;;8.68;5.90;;;23.50;99.90;;;;;;4978618;28;20052;-82
2023/08/24 09:45:53;;;;;;;8.85;5.90;;;23.40;99.90;;;;;;4956833;28;20073;-83
2023/08/24 09:48:20;;;;;;;7.03;5.10;;;23.40;99.90;;;;;;4961247;28;20129;-83
2023/08/24 09:50:47;;;;;;;9.77;4.80;;;23.50;99.90;;;;;;4959248;28;20081;-82
2023/08/24 09:53:23;;;;;;;7.55;5.03;;;23.50;99.90;;;;;;4962371;28;20121;-82
2023/08/24 09:56:02;;;;;;;10.20;5.03;;;23.30;99.90;;;;;;4974833;28;20085;-83
2023/08/24 09:58:32;;;;;;;6.80;4.57;;;23.50;99.90;;;;;;4976360;28;20042;-82
2023/08/24 10:00:58;;;;;;;8.75;5.10;;;23.40;99.90;;;;;;4957867;28;20045;-82
2023/08/24 10:03:29;;;;;;;7.30;4.68;;;23.50;99.90;;;;;;4942986;28;20050;-83
2023/08/24 10:06:00;;;;;;;7.78;4.85;;;23.50;99.90;;;;;;4958226;28;20560;-83
2023/08/24 10:08:34;;;;;;;11.00;4.60;;;23.40;99.90;;;;;;4958240;28;20103;-83
2023/08/24 10:11:00;;;;;;;10.55;5.53;;;23.40;99.90;;;;;;4958137;28;20049;-82
2023/08/24 10:14:01;;;;;;;6.68;4.65;;;23.40;99.90;;;;;;4957279;28;20383;-83
2023/08/24 10:16:28;;;;;;;8.23;4.50;;;23.50;99.90;;;;;;4912917;28;20055;-82
2023/08/24 10:18:55;;;;;;;7.70;4.70;;;23.30;99.90;;;;;;4945548;28;20738;-83
2023/08/24 10:21:24;;;;;;;11.38;5.20;;;23.30;99.90;;;;;;4959950;28;20046;-83
2023/08/24 10:23:51;;;;;;;8.15;5.00;;;23.20;99.90;;;;;;4961849;28;20097;-82
2023/08/24 10:26:18;;;;;;;7.93;4.70;;;23.20;99.90;;;;;;4973792;28;20088;-83
2023/08/24 10:28:45;;;;;;;11.02;5.15;;;23.20;99.90;;;;;;4943978;28;20521;-83
2023/08/24 10:31:11;;;;;;;7.05;4.93;;;23.10;99.90;;;;;;4976942;28;20038;-82
2023/08/24 10:33:38;;;;;;;10.55;5.22;;;23.10;99.90;;;;;;4944455;28;20042;-82
2023/08/24 10:36:07;;;;;;;6.57;4.60;;;22.90;99.90;;;;;;4973672;28;20042;-83
2023/08/24 10:38:39;;;;;;;7.22;5.07;;;22.90;99.90;;;;;;4960581;28;20354;-83
2023/08/24 10:41:05;;;;;;;11.18;5.00;;;22.90;99.90;;;;;;4941958;28;20038;-82
2023/08/24 10:43:37;;;;;;;8.55;5.88;;;22.90;99.90;;;;;;4959586;28;20030;-83
2023/08/24 10:46:04;;;;;;;8.80;5.13;;;22.70;99.90;;;;;;4959310;28;20058;-83
2023/08/24 10:48:50;;;;;;;9.32;5.50;;;22.60;99.90;;;;;;4943411;28;20520;-83
2023/08/24 10:51:26;;;;;;;8.48;5.50;;;22.60;99.90;;;;;;4957584;28;20065;-83
2023/08/24 10:53:58;;;;;;;9.00;5.88;;;22.50;99.90;;;;;;4957263;28;20322;-83
2023/08/24 10:56:34;;;;;;;10.45;6.00;;;22.50;99.90;;;;;;4957879;28;20145;-83
2023/08/24 10:59:13;;;;;;;8.68;5.75;;;22.50;99.90;;;;;;4959749;28;20052;-83
2023/08/24 11:01:43;;;;;;;9.23;6.57;;;22.70;99.90;;;;;;4975282;28;20038;-83
2023/08/24 11:04:11;;;;;;;7.97;6.45;;;22.90;99.90;;;;;;4956476;28;20144;-83
2023/08/24 11:07:04;;;;;;;10.88;6.38;;;22.90;99.90;;;;;;4959963;28;20061;-83
2023/08/24 11:09:48;;;;;;;9.85;7.00;;;23.10;99.90;;;;;;4974550;28;20043;-83
2023/08/24 11:12:14;;;;;;;10.43;6.15;;;23.10;99.90;;;;;;4957937;28;20043;-82
2023/08/24 11:14:58;;;;;;;7.80;6.57;;;23.10;99.90;;;;;;4973976;28;20389;-83
2023/08/24 11:17:31;;;;;;;6.95;6.03;;;23.10;99.90;;;;;;4959858;28;20407;-83
2023/08/24 11:19:57;;;;;;;9.68;6.03;;;23.20;99.90;;;;;;4972166;28;20154;-83
2023/08/24 11:22:25;;;;;;;11.30;5.70;;;23.20;99.90;;;;;;4944766;28;20128;-84
2023/08/24 11:24:50;;;;;;;9.50;6.35;;;23.30;99.90;;;;;;4957206;28;20453;-83
2023/08/24 11:27:16;;;;;;;9.73;6.20;;;23.40;99.90;;;;;;4958865;28;20513;-83
2023/08/24 11:29:42;;;;;;;10.18;7.05;;;23.40;99.90;;;;;;4974484;28;20054;-82
2023/08/24 11:32:08;;;;;;;8.50;6.38;;;23.40;99.90;;;;;;4960164;28;20042;-83
2023/08/24 11:34:37;;;;;;;8.40;6.10;;;23.60;99.90;;;;;;4938054;28;20548;-83
2023/08/24 11:37:03;;;;;;;12.40;6.70;;;23.80;99.90;;;;;;4956310;28;20280;-83
2023/08/24 11:39:32;;;;;;;11.63;6.65;;;23.80;99.90;;;;;;4956520;28;20623;-83
2023/08/24 11:42:02;;;;;;;10.50;6.55;;;23.90;99.90;;;;;;4941704;28;20433;-82
2023/08/24 11:44:48;;;;;;;9.45;6.32;;;24.00;99.90;;;;;;4957444;28;20580;-83
2023/08/24 11:47:15;;;;;;;8.10;6.53;;;23.90;99.90;;;;;;4941763;28;20038;-83
2023/08/24 11:49:41;;;;;;;9.60;6.53;;;24.10;99.90;;;;;;4958682;28;20268;-83
2023/08/24 11:52:08;;;;;;;8.68;6.47;;;24.40;99.90;;;;;;4971492;28;20060;-82
2023/08/24 11:54:33;;;;;;;8.27;6.40;;;24.50;99.90;;;;;;4953615;28;20053;-84
2023/08/24 11:56:59;;;;;;;7.53;6.20;;;24.60;99.90;;;;;;4956835;28;20489;-83
2023/08/24 11:59:25;;;;;;;9.73;6.90;;;24.40;99.90;;;;;;4957689;28;20042;-83
2023/08/24 12:01:55;;;;;;;11.25;6.82;;;24.80;99.90;;;;;;4975394;28;20104;-83
2023/08/24 12:04:23;;;;;;;10.43;6.72;;;25.00;99.90;;;;;;4943177;28;20147;-84
2023/08/24 12:06:50;;;;;;;9.27;6.45;;;25.10;99.90;;;;;;4960390;28;20738;-83
2023/08/24 12:09:16;;;;;;;7.57;5.85;;;24.90;99.90;;;;;;4943189;28;20046;-83
2023/08/24 12:11:41;;;;;;;9.90;6.15;;;24.60;99.90;;;;;;4957982;28;20457;-82
2023/08/24 12:14:09;;;;;;;7.72;6.80;;;24.70;99.90;;;;;;4945519;28;20038;-83
2023/08/24 12:16:35;;;;;;;11.23;7.07;;;24.70;99.90;;;;;;4945389;28;20100;-83
2023/08/24 12:19:07;;;;;;;10.98;6.47;;;24.70;99.90;;;;;;4963028;28;20583;-83
2023/08/24 12:21:33;;;;;;;8.88;6.25;;;24.80;99.90;;;;;;4963353;28;20115;-83
2023/08/24 12:24:06;;;;;;;7.55;6.43;;;24.70;99.90;;;;;;4978917;28;20216;-83
2023/08/24 12:26:33;;;;;;;9.88;6.38;;;24.40;99.90;;;;;;4944550;28;20129;-83
2023/08/24 12:29:02;;;;;;;9.68;6.70;;;24.50;99.90;;;;;;4945257;28;20092;-83
2023/08/24 12:31:29;;;;;;;9.23;7.00;;;24.50;99.90;;;;;;4976784;28;20046;-83
2023/08/24 12:34:03;;;;;;;12.45;6.43;;;24.30;99.90;;;;;;4978823;28;20498;-83
2023/08/24 12:36:29;;;;;;;7.22;5.82;;;24.50;99.90;;;;;;4958335;28;20034;-83
2023/08/24 12:38:55;;;;;;;9.48;5.88;;;24.60;99.90;;;;;;4944000;28;20042;-84
2023/08/24 12:41:22;;;;;;;7.82;5.97;;;24.70;99.90;;;;;;4960299;28;20440;-83
2023/08/24 12:43:47;;;;;;;10.25;6.13;;;24.90;99.90;;;;;;4977096;28;20093;-83